Time;durP1;ratioP1;P1;durP2;ratioP2;P2;SDS_P1;SDS_P2;PMS_P1;PMS_P2;Temp;Humidity;BMP_temperature;BMP_pressure;BME280_temperature;BME280_humidity;BME280_pressure;Samples;Min_cycle;Max_cycle;Signal;HPM_P1;HPM_P2
2021/05/05 00:00:17;;;;;;;;;;;;;;;19.54;62.57;100860.84;5130275;27;1573;-64
2021/05/05 00:03:01;;;;;;;;;;;;;;;19.53;62.47;100858.28;5141034;27;1028;-64
2021/05/05 00:05:46;;;;;;;;;;;;;;;19.49;62.67;100846.19;5150364;27;1406;-65
2021/05/05 00:08:31;;;;;;;;;;;;;;;19.53;62.64;100850.34;5150929;27;1039;-65
2021/05/05 00:11:15;;;;;;;;;;;;;;;19.53;62.53;100845.06;5150760;27;1291;-65
2021/05/05 00:14:00;;;;;;;;;;;;;;;19.53;62.60;100837.13;5134874;27;1905;-66
2021/05/05 00:16:45;;;;;;;;;;;;;;;19.52;62.62;100843.34;5150616;27;1365;-65
2021/05/05 00:19:30;;;;;;;;;;;;;;;19.51;62.69;100842.53;5150824;27;1407;-64
2021/05/05 00:22:15;;;;;;;;;;;;;;;19.52;62.76;100843.34;5150743;27;710;-64
2021/05/05 00:24:59;;;;;;;;;;;;;;;19.51;62.73;100839.88;5149119;27;1355;-64
2021/05/05 00:27:44;;;;;;;;;;;;;;;19.53;62.67;100840.63;5148938;27;1124;-64
2021/05/05 00:30:29;;;;;;;;;;;;;;;19.51;62.62;100844.31;5149053;27;1405;-65
2021/05/05 00:33:14;;;;;;;;;;;;;;;19.50;62.65;100832.91;5148434;27;1977;-64
2021/05/05 00:35:59;;;;;;;;;;;;;;;19.49;62.78;100825.91;5148310;27;1348;-65
2021/05/05 00:38:44;;;;;;;;;;;;;;;19.50;62.68;100824.09;5149310;27;1079;-65
2021/05/05 00:41:29;;;;;;;;;;;;;;;19.48;62.96;100821.56;5150463;27;1357;-65
2021/05/05 00:44:13;;;;;;;;;;;;;;;19.49;62.74;100822.41;5133732;27;1079;-64
2021/05/05 00:46:58;;;;;;;;;;;;;;;19.48;62.86;100820.72;5150277;27;1667;-65
2021/05/05 00:49:43;;;;;;;;;;;;;;;19.48;62.79;100816.28;5150726;27;1332;-64
2021/05/05 00:52:28;;;;;;;;;;;;;;;19.47;62.91;100814.59;5134795;27;694;-66
2021/05/05 00:55:13;;;;;;;;;;;;;;;19.48;62.94;100807.50;5150557;27;1279;-65
2021/05/05 00:57:58;;;;;;;;;;;;;;;19.47;62.95;100811.94;5150560;27;934;-65
2021/05/05 01:00:44;;;;;;;;;;;;;;;19.47;62.97;100804.00;5150028;27;1246;-65
2021/05/05 01:03:29;;;;;;;;;;;;;;;19.47;62.81;100808.44;5150487;27;1034;-65
2021/05/05 01:06:15;;;;;;;;;;;;;;;19.47;62.83;100792.59;5150429;27;1274;-65
2021/05/05 01:09:00;;;;;;;;;;;;;;;19.49;62.97;100803.91;5150523;27;962;-65
2021/05/05 01:11:45;;;;;;;;;;;;;;;19.47;62.97;100804.00;5134414;27;1275;-63
2021/05/05 01:14:29;;;;;;;;;;;;;;;19.47;62.83;100805.81;5149985;27;1976;-64
2021/05/05 01:17:14;;;;;;;;;;;;;;;19.46;62.99;100804.09;5150090;27;699;-65
2021/05/05 01:20:00;;;;;;;;;;;;;;;19.45;62.90;100805.06;5150307;27;1258;-65
2021/05/05 01:22:45;;;;;;;;;;;;;;;19.45;63.10;100799.75;5149968;27;1046;-64
2021/05/05 01:25:29;;;;;;;;;;;;;;;19.45;63.01;100792.69;5150008;27;1258;-65
2021/05/05 01:28:14;;;;;;;;;;;;;;;19.45;63.26;100799.75;5150057;27;1083;-65
2021/05/05 01:30:59;;;;;;;;;;;;;;;19.45;63.08;100791.84;5150001;27;1310;-65
2021/05/05 01:33:43;;;;;;;;;;;;;;;19.44;62.99;100788.34;5150162;27;1902;-65
2021/05/05 01:36:33;;;;;;;;;;;;;;;19.44;63.21;100790.97;5134053;27;1294;-65
2021/05/05 01:39:18;;;;;;;;;;;;;;;19.43;62.92;100801.63;5150083;27;943;-65
2021/05/05 01:42:03;;;;;;;;;;;;;;;19.43;63.11;100805.13;5149669;27;710;-65
2021/05/05 01:44:48;;;;;;;;;;;;;;;19.43;62.99;100797.19;5149729;27;1267;-66
2021/05/05 01:47:33;;;;;;;;;;;;;;;19.42;63.14;100792.88;5134108;27;1533;-65
2021/05/05 01:50:18;;;;;;;;;;;;;;;19.43;63.08;100780.50;5149986;27;1349;-63
2021/05/05 01:53:02;;;;;;;;;;;;;;;19.42;62.98;100778.81;5149755;27;1893;-64
2021/05/05 01:55:47;;;;;;;;;;;;;;;19.42;62.98;100773.53;5153185;27;1255;-64
2021/05/05 01:58:36;;;;;;;;;;;;;;;19.41;62.89;100771.81;5137480;27;1100;-64
2021/05/05 02:01:20;;;;;;;;;;;;;;;19.41;62.99;100767.38;5152829;27;1401;-63
2021/05/05 02:04:05;;;;;;;;;;;;;;;19.41;62.96;100767.38;5137683;27;1186;-63
2021/05/05 02:06:50;;;;;;;;;;;;;;;19.40;63.03;100765.69;5153292;27;1288;-63
2021/05/05 02:09:34;;;;;;;;;;;;;;;19.40;63.11;100765.69;5153583;27;1332;-63
2021/05/05 02:12:20;;;;;;;;;;;;;;;19.40;62.94;100770.97;5153176;27;600;-65
2021/05/05 02:15:06;;;;;;;;;;;;;;;19.39;63.04;100769.28;5153198;27;1909;-65
2021/05/05 02:17:51;;;;;;;;;;;;;;;19.39;62.91;100766.63;5153038;27;1051;-65
2021/05/05 02:20:36;;;;;;;;;;;;;;;19.39;63.06;100768.41;5152903;27;1366;-65
2021/05/05 02:23:21;;;;;;;;;;;;;;;19.39;62.91;100761.34;5137304;27;1049;-66
2021/05/05 02:26:06;;;;;;;;;;;;;;;19.39;62.90;100761.34;5152858;27;1259;-65
2021/05/05 02:28:50;;;;;;;;;;;;;;;19.39;63.05;100764.00;5152782;27;1123;-65
2021/05/05 02:31:35;;;;;;;;;;;;;;;19.38;62.79;100762.25;5152708;27;1315;-65
2021/05/05 02:34:20;;;;;;;;;;;;;;;19.40;62.86;100767.47;5152827;27;1909;-64
2021/05/05 02:37:05;;;;;;;;;;;;;;;19.40;62.84;100764.81;5137255;27;628;-65
2021/05/05 02:39:50;;;;;;;;;;;;;;;19.41;62.87;100774.47;5136934;27;1267;-63
2021/05/05 02:42:35;;;;;;;;;;;;;;;19.42;62.80;100770.88;5137063;27;647;-63
2021/05/05 02:45:20;;;;;;;;;;;;;;;19.42;62.88;100769.09;5136570;27;1390;-64
2021/05/05 02:48:05;;;;;;;;;;;;;;;19.40;62.84;100770.09;5152342;27;1287;-64
2021/05/05 02:50:50;;;;;;;;;;;;;;;19.40;62.88;100764.81;5152738;27;1276;-65
2021/05/05 02:53:35;;;;;;;;;;;;;;;19.39;62.93;100765.75;5152507;27;1906;-64
2021/05/05 02:56:19;;;;;;;;;;;;;;;19.39;62.94;100760.47;5136417;27;1269;-64
2021/05/05 02:59:04;;;;;;;;;;;;;;;19.39;62.92;100755.19;5152355;27;1050;-64
2021/05/05 03:01:48;;;;;;;;;;;;;;;19.38;62.83;100754.34;5151944;27;1302;-64
2021/05/05 03:04:33;;;;;;;;;;;;;;;19.36;62.91;100748.28;5152312;27;1326;-63
2021/05/05 03:07:18;;;;;;;;;;;;;;;19.36;63.00;100756.19;5151584;27;753;-64
2021/05/05 03:10:05;;;;;;;;;;;;;;;19.38;62.93;100750.84;5152444;27;1333;-63
2021/05/05 03:12:50;;;;;;;;;;;;;;;19.36;62.90;100752.72;5152213;27;947;-64
2021/05/05 03:15:34;;;;;;;;;;;;;;;19.36;63.10;100748.28;5151997;27;1227;-64
2021/05/05 03:18:19;;;;;;;;;;;;;;;19.36;63.09;100750.09;5151908;27;967;-65
2021/05/05 03:21:04;;;;;;;;;;;;;;;19.35;63.00;100748.38;5152149;27;1274;-64
2021/05/05 03:23:49;;;;;;;;;;;;;;;19.35;63.01;100737.81;5151925;27;1084;-64
2021/05/05 03:26:34;;;;;;;;;;;;;;;19.35;62.91;100736.03;5135907;27;1260;-64
2021/05/05 03:29:19;;;;;;;;;;;;;;;19.34;62.89;100733.47;5151943;27;1083;-64
2021/05/05 03:32:04;;;;;;;;;;;;;;;19.35;62.91;100743.09;5151599;27;640;-64
2021/05/05 03:34:49;;;;;;;;;;;;;;;19.33;62.99;100735.25;5151633;27;1984;-64
2021/05/05 03:37:33;;;;;;;;;;;;;;;19.34;62.97;100733.47;5151100;27;642;-64
2021/05/05 03:40:18;;;;;;;;;;;;;;;19.32;63.01;100716.88;5151367;27;1240;-64
2021/05/05 03:43:07;;;;;;;;;;;;;;;19.32;63.00;100724.78;5151874;27;1039;-64
2021/05/05 03:45:51;;;;;;;;;;;;;;;19.30;63.06;100719.59;5151493;27;1266;-64
2021/05/05 03:48:36;;;;;;;;;;;;;;;19.32;63.06;100722.16;5151353;27;1469;-64
2021/05/05 03:51:20;;;;;;;;;;;;;;;19.31;63.04;100721.28;5151114;27;1357;-63
2021/05/05 03:54:05;;;;;;;;;;;;;;;19.31;63.08;100723.06;5151119;27;1934;-63
2021/05/05 03:56:50;;;;;;;;;;;;;;;19.31;62.98;100733.63;5151030;27;1311;-64
2021/05/05 03:59:36;;;;;;;;;;;;;;;19.31;62.97;100733.63;5151007;27;1219;-64
2021/05/05 04:02:21;;;;;;;;;;;;;;;19.31;63.11;100738.94;5150489;27;631;-63
2021/05/05 04:05:06;;;;;;;;;;;;;;;19.30;62.97;100737.25;5150910;27;1294;-64
2021/05/05 04:07:51;;;;;;;;;;;;;;;19.29;63.07;100736.38;5150774;27;1054;-64
2021/05/05 04:10:36;;;;;;;;;;;;;;;19.30;63.03;100727.50;5134952;27;1369;-64
2021/05/05 04:13:21;;;;;;;;;;;;;;;19.30;63.03;100731.97;5135259;27;1909;-64
2021/05/05 04:16:24;;;;;;;;;;;;;;;19.29;63.13;100728.47;5151131;27;1290;-64
2021/05/05 04:19:27;;;;;;;;;;;;;;;19.30;63.00;100738.06;5151068;27;1330;-65
2021/05/05 04:22:30;;;;;;;;;;;;;;;19.29;63.08;100746.94;5138140;27;609;-65
2021/05/05 04:25:33;;;;;;;;;;;;;;;19.29;62.99;100748.75;5151264;27;1259;-64
2021/05/05 04:28:17;;;;;;;;;;;;;;;19.31;63.03;100754.78;5134957;27;923;-64
2021/05/05 04:31:02;;;;;;;;;;;;;;;19.31;63.07;100754.78;5134853;27;1286;-64
2021/05/05 04:33:47;;;;;;;;;;;;;;;19.30;63.12;100753.09;5150822;27;1914;-64
2021/05/05 04:36:32;;;;;;;;;;;;;;;19.29;63.09;100746.09;5150498;27;1204;-64
2021/05/05 04:39:17;;;;;;;;;;;;;;;19.28;63.13;100733.81;5151111;27;1073;-64
2021/05/05 04:42:04;;;;;;;;;;;;;;;19.27;63.09;100732.97;5135013;27;697;-64
2021/05/05 04:44:49;;;;;;;;;;;;;;;19.27;63.10;100738.25;5150753;27;1321;-64
2021/05/05 04:47:34;;;;;;;;;;;;;;;19.28;63.17;100739.09;5150351;27;1678;-65
2021/05/05 04:50:19;;;;;;;;;;;;;;;19.28;63.18;100736.47;5150216;27;1330;-64
2021/05/05 04:53:04;;;;;;;;;;;;;;;19.28;63.25;100747.03;5150303;27;1126;-64
2021/05/05 04:55:51;;;;;;;;;;;;;;;19.27;63.27;100737.44;5150348;27;1255;-62
2021/05/05 04:58:36;;;;;;;;;;;;;;;19.26;63.28;100735.72;5134554;27;1110;-63
2021/05/05 05:01:21;;;;;;;;;;;;;;;19.27;63.21;100732.16;5150478;27;1365;-64
2021/05/05 05:04:06;;;;;;;;;;;;;;;19.28;63.20;100744.38;5150378;27;1141;-63
2021/05/05 05:06:50;;;;;;;;;;;;;;;19.35;63.44;100740.44;5149109;27;1355;-64
2021/05/05 05:09:35;;;;;;;;;;;;;;;19.35;63.05;100751.03;5148408;27;1497;-64
2021/05/05 05:12:20;;;;;;;;;;;;;;;19.35;63.09;100751.88;5139665;27;639;-65
2021/05/05 05:15:05;;;;;;;;;;;;;;;19.33;63.12;100764.31;5149237;27;1975;-65
2021/05/05 05:17:50;;;;;;;;;;;;;;;19.33;62.98;100760.84;5134426;27;1044;-65
2021/05/05 05:20:35;;;;;;;;;;;;;;;19.33;63.20;100750.28;5134440;27;1381;-66
2021/05/05 05:23:19;;;;;;;;;;;;;;;19.35;63.08;100761.59;5149417;27;1050;-65
2021/05/05 05:26:04;;;;;;;;;;;;;;;19.35;63.12;100766.88;5133659;27;1275;-66
2021/05/05 05:28:49;;;;;;;;;;;;;;;19.35;63.15;100770.38;5149496;27;1132;-65
2021/05/05 05:31:34;;;;;;;;;;;;;;;19.35;63.19;100769.50;5153060;27;1267;-65
2021/05/05 05:34:19;;;;;;;;;;;;;;;19.34;63.15;100768.66;5153333;27;1905;-63
2021/05/05 05:37:03;;;;;;;;;;;;;;;19.34;63.16;100773.94;5152791;27;671;-64
2021/05/05 05:39:48;;;;;;;;;;;;;;;19.39;63.17;100787.78;5136916;27;1286;-64
2021/05/05 05:42:33;;;;;;;;;;;;;;;19.37;63.10;100778.19;5152762;27;623;-65
2021/05/05 05:45:18;;;;;;;;;;;;;;;19.42;63.39;100784.09;5152521;27;1372;-64
2021/05/05 05:48:05;;;;;;;;;;;;;;;19.46;63.32;100786.44;5152692;27;1186;-65
2021/05/05 05:50:50;;;;;;;;;;;;;;;19.46;63.06;100769.75;5152943;27;1294;-64
2021/05/05 05:53:34;;;;;;;;;;;;;;;19.41;63.10;100769.19;5152511;27;1901;-64
2021/05/05 05:56:21;;;;;;;;;;;;;;;19.39;63.01;100763.13;5136956;27;1275;-67
2021/05/05 05:59:06;;;;;;;;;;;;;;;19.41;63.52;100771.81;5152912;27;957;-66
2021/05/05 06:01:51;;;;;;;;;;;;;;;19.52;63.38;100761.44;5153434;27;1306;-65
2021/05/05 06:04:36;;;;;;;;;;;;;;;19.45;62.76;100760.13;5137703;27;1340;-64
2021/05/05 06:07:21;;;;;;;;;;;;;;;19.42;62.93;100760.31;5153664;27;651;-65
2021/05/05 06:10:06;;;;;;;;;;;;;;;19.38;62.90;100766.69;5152675;27;1225;-64
2021/05/05 06:12:51;;;;;;;;;;;;;;;19.36;62.85;100772.03;5153204;27;1154;-64
2021/05/05 06:15:36;;;;;;;;;;;;;;;19.37;62.99;100775.53;5152689;27;1996;-66
2021/05/05 06:18:21;;;;;;;;;;;;;;;19.37;62.91;100780.81;5153224;27;1076;-65
2021/05/05 06:21:07;;;;;;;;;;;;;;;19.37;63.05;100783.47;5152979;27;1290;-66
2021/05/05 06:23:52;;;;;;;;;;;;;;;19.36;62.95;100789.72;5152828;27;1167;-65
2021/05/05 06:26:36;;;;;;;;;;;;;;;19.39;63.64;100771.94;5151883;27;1591;-66
2021/05/05 06:29:21;;;;;;;;;;;;;;;19.38;63.31;100767.53;5150874;27;1200;-65
2021/05/05 06:32:06;;;;;;;;;;;;;;;19.38;63.15;100777.25;5124122;27;722;-65
2021/05/05 06:34:51;;;;;;;;;;;;;;;19.40;63.61;100775.38;5131143;27;1917;-65
2021/05/05 06:37:36;;;;;;;;;;;;;;;19.40;63.40;100783.31;5130997;27;666;-64
2021/05/05 06:40:21;;;;;;;;;;;;;;;19.37;63.48;100765.81;5130096;27;1242;-65
2021/05/05 06:43:06;;;;;;;;;;;;;;;19.37;63.46;100770.25;5115342;27;1057;-65
2021/05/05 06:45:51;;;;;;;;;;;;;;;19.36;63.55;100777.31;5130778;27;1373;-67
2021/05/05 06:48:36;;;;;;;;;;;;;;;19.37;63.81;100775.53;5130539;27;1605;-66
2021/05/05 06:51:21;;;;;;;;;;;;;;;19.36;63.65;100777.31;5114883;27;1338;-65
2021/05/05 06:54:06;;;;;;;;;;;;;;;19.36;63.57;100784.44;5130932;27;1974;-65
2021/05/05 06:56:51;;;;;;;;;;;;;;;19.36;63.54;100773.84;5114664;27;1283;-66
2021/05/05 06:59:36;;;;;;;;;;;;;;;19.36;63.43;100773.84;5114429;27;1372;-65
2021/05/05 07:02:21;;;;;;;;;;;;;;;19.36;63.48;100784.44;5129300;27;686;-65
2021/05/05 07:05:07;;;;;;;;;;;;;;;19.36;63.40;100774.69;5130505;27;1367;-65
2021/05/05 07:07:52;;;;;;;;;;;;;;;19.42;63.46;100778.81;5135436;27;1679;-65
2021/05/05 07:10:36;;;;;;;;;;;;;;;19.45;63.52;100781.28;5135167;27;1350;-67
2021/05/05 07:13:22;;;;;;;;;;;;;;;19.44;63.45;100788.34;5144863;27;1128;-65
2021/05/05 07:16:14;;;;;;;;;;;;;;;19.48;63.54;100795.16;5128452;27;1337;-66
2021/05/05 07:19:00;;;;;;;;;;;;;;;19.46;63.55;100790.88;5129272;27;1030;-64
2021/05/05 07:21:45;;;;;;;;;;;;;;;19.55;63.72;100792.97;5112924;27;1291;-63
2021/05/05 07:24:29;;;;;;;;;;;;;;;19.58;63.47;100801.56;5128580;27;1075;-64
2021/05/05 07:27:15;;;;;;;;;;;;;;;19.54;63.85;100805.38;5140997;27;1746;-63
2021/05/05 07:30:01;;;;;;;;;;;;;;;19.51;63.85;100812.63;5142508;27;1254;-63
2021/05/05 07:32:46;;;;;;;;;;;;;;;19.51;61.21;100805.53;5128264;27;1066;-64
2021/05/05 07:35:31;;;;;;;;;;;;;;;19.49;60.59;100820.63;5138431;27;1922;-63
2021/05/05 07:38:32;;;;;;;;;;;;;;;19.53;61.98;100823.94;5132816;27;1097;-63
2021/05/05 07:47:27;;;;;;;;;;;;;;;19.52;63.04;100811.66;5126919;27;1499;-64
2021/05/05 07:50:12;;;;;;;;;;;;;;;19.53;63.17;100818.66;5126680;27;1236;-65
2021/05/05 07:52:57;;;;;;;;;;;;;;;19.51;63.33;100817.91;5126654;27;1033;-65
2021/05/05 07:55:41;;;;;;;;;;;;;;;19.49;63.40;100817.13;5126755;27;1898;-64
2021/05/05 07:58:25;;;;;;;;;;;;;;;19.49;63.44;100817.13;5112444;27;1231;-65
2021/05/05 08:01:14;;;;;;;;;;;;;;;19.47;63.41;100811.09;5139018;27;1275;-65
2021/05/05 08:03:59;;;;;;;;;;;;;;;19.48;63.53;100810.16;5148024;27;1062;-65
2021/05/05 08:06:44;;;;;;;;;;;;;;;19.48;63.43;100818.06;5148787;27;1293;-66
2021/05/05 08:09:29;;;;;;;;;;;;;;;19.48;63.47;100811.00;5133077;27;1127;-65
2021/05/05 08:12:14;;;;;;;;;;;;;;;19.53;63.82;100818.66;5133223;27;686;-63
2021/05/05 08:15:00;;;;;;;;;;;;;;;19.64;63.07;100808.28;5133042;27;1910;-63
2021/05/05 08:17:46;;;;;;;;;;;;;;;19.59;62.01;100800.66;5148753;27;925;-63
2021/05/05 08:20:35;;;;;;;;;;;;;;;19.60;60.27;100804.16;5148545;27;1397;-63
2021/05/05 08:23:20;;;;;;;;;;;;;;;19.57;60.18;100797.25;5148739;27;934;-64
2021/05/05 08:26:05;;;;;;;;;;;;;;;19.57;60.30;100793.75;5133799;27;1388;-65
2021/05/05 08:28:50;;;;;;;;;;;;;;;19.55;59.92;100795.63;5149104;27;1103;-65
2021/05/05 08:31:35;;;;;;;;;;;;;;;19.57;59.50;100797.25;5149219;27;1372;-66
2021/05/05 08:34:20;;;;;;;;;;;;;;;19.58;59.02;100795.44;5130781;27;1905;-66
2021/05/05 08:37:05;;;;;;;;;;;;;;;19.60;59.62;100793.56;5111585;27;663;-64
2021/05/05 08:39:50;;;;;;;;;;;;;;;19.68;60.77;100791.31;5127087;27;1240;-64
2021/05/05 08:42:34;;;;;;;;;;;;;;;19.73;59.96;100798.97;5127443;27;667;-62
2021/05/05 08:45:20;;;;;;;;;;;;;;;19.68;60.12;100801.88;5128040;27;1302;-62
2021/05/05 08:48:06;;;;;;;;;;;;;;;19.68;59.23;100804.53;5127907;28;1588;-62
2021/05/05 08:50:51;;;;;;;;;;;;;;;19.72;60.28;100808.69;5127844;28;1361;-63
2021/05/05 08:53:36;;;;;;;;;;;;;;;19.71;60.66;100803.47;5128075;28;1902;-63
2021/05/05 08:56:21;;;;;;;;;;;;;;;19.67;61.82;100804.63;5127878;28;1246;-63
2021/05/05 08:59:08;;;;;;;;;;;;;;;19.63;62.26;100804.81;5128235;28;1047;-64
2021/05/05 09:01:53;;;;;;;;;;;;;;;19.64;62.33;100806.50;5112229;28;1262;-63
2021/05/05 09:04:38;;;;;;;;;;;;;;;19.65;62.53;100807.34;5114105;27;1341;-63
2021/05/05 09:07:33;;;;;;;;;;;;;;;19.70;62.13;100807.91;5132495;27;611;-64
2021/05/05 09:10:20;;;;;;;;;;;;;;;19.68;62.59;100811.59;5132856;27;1259;-65
2021/05/05 09:13:05;;;;;;;;;;;;;;;19.64;62.73;100809.13;5132115;27;958;-67
2021/05/05 09:16:05;;;;;;;;;;;;;;;19.66;62.84;100805.56;5116433;27;1910;-64
2021/05/05 09:18:54;;;;;;;;;;;;;;;19.73;62.63;100809.56;5132292;27;1389;-65
2021/05/05 09:21:44;;;;;;;;;;;;;;;19.70;62.84;100810.56;5131422;27;1282;-63
2021/05/05 09:24:31;;;;;;;;;;;;;;;19.69;63.08;100813.31;5115403;27;1072;-62
2021/05/05 09:27:15;;;;;;;;;;;;;;;19.73;62.78;100807.72;5131304;27;671;-63
2021/05/05 09:30:01;;;;;;;;;;;;;;;19.70;63.09;100809.72;5131869;27;1234;-64
2021/05/05 09:32:46;;;;;;;;;;;;;;;19.69;63.10;100813.31;5132076;27;1315;-62
2021/05/05 09:35:39;;;;;;;;;;;;;;;19.73;62.86;100820.13;5144582;27;1905;-64
2021/05/05 09:38:40;;;;;;;;;;;;;;;19.72;63.26;100824.56;5152330;27;1145;-65
2021/05/05 09:41:26;;;;;;;;;;;;;;;19.72;63.18;100823.69;5152491;27;1310;-63
2021/05/05 09:44:11;;;;;;;;;;;;;;;19.79;62.77;100822.41;5152376;27;1045;-64
2021/05/05 09:46:57;;;;;;;;;;;;;;;19.76;63.05;100830.50;5152454;27;707;-64
2021/05/05 09:49:44;;;;;;;;;;;;;;;19.73;63.37;100836.81;5152131;27;1285;-66
2021/05/05 09:52:30;;;;;;;;;;;;;;;19.76;63.84;100835.78;5152126;27;635;-64
2021/05/05 09:55:17;;;;;;;;;;;;;;;19.77;63.32;100838.34;5152043;27;1909;-67
2021/05/05 09:58:19;;;;;;;;;;;;;;;19.74;63.52;100848.22;5152292;27;1050;-65
2021/05/05 10:01:04;;;;;;;;;;;;;;;19.75;63.35;100849.94;5136562;27;1386;-66
2021/05/05 10:03:49;;;;;;;;;;;;;;;19.78;63.50;100841.84;5136239;27;1068;-66
2021/05/05 10:06:38;;;;;;;;;;;;;;;19.75;63.31;100837.59;5136291;27;1279;-66
2021/05/05 10:09:24;;;;;;;;;;;;;;;19.77;63.71;100851.56;5152219;27;1091;-67
2021/05/05 10:12:09;;;;;;;;;;;;;;;19.80;63.68;100843.44;5135621;27;726;-67
2021/05/05 10:14:55;;;;;;;;;;;;;;;19.77;63.64;100855.97;5135284;27;1992;-66
2021/05/05 10:17:39;;;;;;;;;;;;;;;19.73;63.71;100850.00;5151031;27;984;-66
2021/05/05 10:20:26;;;;;;;;;;;;;;;19.73;63.66;100852.66;5150354;27;1222;-66
2021/05/05 10:23:14;;;;;;;;;;;;;;;19.75;63.61;100855.22;5151501;27;957;-64
2021/05/05 10:25:59;;;;;;;;;;;;;;;19.76;63.57;100855.13;5150831;27;1280;-65
2021/05/05 10:28:44;;;;;;;;;;;;;;;19.85;65.63;100846.66;5151345;27;1155;-63
2021/05/05 10:31:30;;;;;;;;;;;;;;;19.94;64.79;100858.50;5135122;27;1287;-64
2021/05/05 10:34:20;;;;;;;;;;;;;;;19.84;64.79;100857.31;5152053;27;1898;-64
2021/05/05 10:37:06;;;;;;;;;;;;;;;19.80;65.03;100864.59;5152480;27;706;-65
2021/05/05 10:39:50;;;;;;;;;;;;;;;19.76;65.36;100857.75;5136865;27;1270;-64
2021/05/05 10:42:47;;;;;;;;;;;;;;;19.75;65.59;100853.44;5152591;27;690;-64
2021/05/05 10:45:37;;;;;;;;;;;;;;;19.75;65.45;100856.09;5151822;27;1188;-64
2021/05/05 10:48:22;;;;;;;;;;;;;;;19.75;65.59;100855.22;5152046;27;1210;-65
2021/05/05 10:51:06;;;;;;;;;;;;;;;19.74;65.89;100854.38;5152142;27;1329;-65
2021/05/05 10:53:51;;;;;;;;;;;;;;;19.74;65.81;100850.88;5152319;27;1972;-65
2021/05/05 10:56:36;;;;;;;;;;;;;;;19.75;65.76;100866.66;5151318;27;1356;-64
2021/05/05 10:59:25;;;;;;;;;;;;;;;19.73;65.87;100852.66;5152044;27;920;-65
2021/05/05 11:02:30;;;;;;;;;;;;;;;19.74;66.07;100858.81;5152185;27;717;-65
2021/05/05 11:05:35;;;;;;;;;;;;;;;19.73;65.97;100857.94;5136130;27;1283;-65
2021/05/05 11:08:25;;;;;;;;;;;;;;;19.73;65.97;100865.06;5151733;27;931;-64
2021/05/05 11:11:29;;;;;;;;;;;;;;;19.74;65.86;100867.59;5151941;27;1370;-64
2021/05/05 11:14:40;;;;;;;;;;;;;;;19.73;65.83;100868.53;5152019;27;1902;-64
2021/05/05 11:17:28;;;;;;;;;;;;;;;19.72;65.88;100858.91;5136085;27;615;-65
2021/05/05 11:20:33;;;;;;;;;;;;;;;19.73;65.87;100862.41;5152129;27;1220;-65
2021/05/05 11:23:38;;;;;;;;;;;;;;;19.74;65.67;100866.72;5151766;27;984;-65
2021/05/05 11:26:24;;;;;;;;;;;;;;;19.73;65.94;100860.59;5151077;27;1224;-65
2021/05/05 11:29:11;;;;;;;;;;;;;;;19.73;65.69;100857.94;5151781;27;1088;-64
2021/05/05 11:31:55;;;;;;;;;;;;;;;19.73;65.68;100863.22;5151746;27;1379;-65
2021/05/05 11:34:44;;;;;;;;;;;;;;;19.74;65.57;100872.00;5135513;27;1905;-65
2021/05/05 11:37:35;;;;;;;;;;;;;;;19.74;65.22;100861.44;5136332;27;608;-64
2021/05/05 11:40:20;;;;;;;;;;;;;;;19.84;65.18;100855.53;5124498;27;1731;-64
2021/05/05 11:43:15;;;;;;;;;;;;;;;19.89;64.64;100849.97;5134568;27;1092;-64
2021/05/05 11:46:08;;;;;;;;;;;;;;;19.88;64.63;100851.75;5128374;27;1289;-64
2021/05/05 11:48:53;;;;;;;;;;;;;;;19.84;64.09;100855.53;5148689;27;1463;-64
2021/05/05 11:51:38;;;;;;;;;;;;;;;19.82;63.65;100856.56;5148920;27;1350;-65
2021/05/05 11:54:28;;;;;;;;;;;;;;;19.79;63.29;100862.88;5148939;27;1905;-65
2021/05/05 11:57:13;;;;;;;;;;;;;;;19.81;62.96;100868.09;5130038;27;1223;-65
2021/05/05 12:00:11;;;;;;;;;;;;;;;19.80;62.30;100866.38;5128288;27;1279;-65
2021/05/05 12:03:00;;;;;;;;;;;;;;;19.80;62.00;100869.88;5128141;27;1146;-64
2021/05/05 12:05:46;;;;;;;;;;;;;;;19.85;61.30;100859.88;5127814;27;1291;-66
2021/05/05 12:08:31;;;;;;;;;;;;;;;19.91;61.55;100864.78;5128062;27;1056;-66
2021/05/05 12:11:19;;;;;;;;;;;;;;;19.86;60.73;100856.28;5127812;27;1290;-67
2021/05/05 12:14:04;;;;;;;;;;;;;;;19.84;60.49;100857.31;5128507;27;2002;-65
2021/05/05 12:16:49;;;;;;;;;;;;;;;19.84;60.76;100858.19;5148508;27;1393;-65
2021/05/05 12:19:34;;;;;;;;;;;;;;;19.84;60.48;100863.47;5132683;27;1346;-65
2021/05/05 12:22:19;;;;;;;;;;;;;;;19.84;60.54;100863.47;5148581;27;659;-67
2021/05/05 12:25:12;;;;;;;;;;;;;;;19.87;60.40;100857.13;5132990;27;1325;-68
2021/05/05 12:28:04;;;;;;;;;;;;;;;19.87;60.35;100858.00;5148729;27;1045;-66
2021/05/05 12:30:51;;;;;;;;;;;;;;;19.90;60.42;100872.81;5148395;27;1238;-67
2021/05/05 12:33:38;;;;;;;;;;;;;;;19.90;59.99;100868.38;5133006;27;1079;-67
2021/05/05 12:36:33;;;;;;;;;;;;;;;19.94;60.31;100869.06;5148795;27;1274;-67
2021/05/05 12:39:19;;;;;;;;;;;;;;;20.06;59.81;100874.44;5148402;27;967;-68
2021/05/05 12:42:13;;;;;;;;;;;;;;;20.04;59.51;100864.91;5125217;27;1415;-68
2021/05/05 12:45:05;;;;;;;;;;;;;;;20.03;59.65;100865.88;5127139;27;1337;-67
2021/05/05 12:47:59;;;;;;;;;;;;;;;20.04;59.95;100862.25;5124912;27;1458;-69
2021/05/05 12:50:44;;;;;;;;;;;;;;;20.05;59.50;100864.81;5132109;27;1295;-67
2021/05/05 12:53:43;;;;;;;;;;;;;;;20.10;58.74;100867.19;5148122;27;1142;-66
2021/05/05 12:56:39;;;;;;;;;;;;;;;20.16;58.35;100872.94;5132150;27;1274;-69
2021/05/05 12:59:34;;;;;;;;;;;;;;;20.14;58.46;100871.34;5132162;27;1180;-67
2021/05/05 13:02:24;;;;;;;;;;;;;;;20.17;58.47;100872.00;5147886;27;578;-65
2021/05/05 13:05:11;;;;;;;;;;;;;;;20.13;58.64;100867.84;5148375;27;1361;-67
2021/05/05 13:08:06;;;;;;;;;;;;;;;20.14;58.00;100879.28;5132944;27;1046;-68
2021/05/05 13:10:51;;;;;;;;;;;;;;;20.21;58.52;100870.03;5149009;27;1279;-68
2021/05/05 13:13:43;;;;;;;;;;;;;;;20.38;58.32;100866.38;5133144;27;1077;-63
2021/05/05 13:31:48;;;;;;;;;;;;;;;20.32;57.76;100877.34;5127963;28;1335;-65
2021/05/05 13:34:33;;;;;;;;;;;;;;;20.34;57.17;100875.44;5128034;28;1940;-64
2021/05/05 13:37:18;;;;;;;;;;;;;;;20.38;56.27;100882.25;5127880;28;702;-68
2021/05/05 13:40:04;;;;;;;;;;;;;;;20.35;56.86;100888.59;5127660;28;1422;-70
2021/05/05 13:42:51;;;;;;;;;;;;;;;20.27;57.19;100879.41;5128343;28;1108;-69
2021/05/05 13:45:39;;;;;;;;;;;;;;;20.27;57.31;100877.63;5111944;28;1375;-68
2021/05/05 13:48:42;;;;;;;;;;;;;;;20.28;57.77;100884.59;5136646;27;1572;-65
2021/05/05 13:51:27;;;;;;;;;;;;;;;20.21;58.41;100885.06;5129421;27;1246;-64
2021/05/05 13:54:13;;;;;;;;;;;;;;;20.19;58.72;100879.84;5115534;27;2021;-65
2021/05/05 13:57:02;;;;;;;;;;;;;;;20.16;58.81;100877.38;5130468;27;659;-64
2021/05/05 13:59:48;;;;;;;;;;;;;;;20.15;59.05;100881.81;5130741;27;1345;-65
2021/05/05 14:02:34;;;;;;;;;;;;;;;20.14;59.40;100880.13;5130779;27;718;-63
2021/05/05 14:05:19;;;;;;;;;;;;;;;20.19;59.79;100877.19;5130605;27;1405;-65
2021/05/05 14:08:04;;;;;;;;;;;;;;;20.17;59.51;100879.09;5130410;27;1128;-64
2021/05/05 14:10:50;;;;;;;;;;;;;;;20.15;59.55;100868.59;5130042;27;1294;-65
2021/05/05 14:13:35;;;;;;;;;;;;;;;20.17;59.80;100868.50;5130531;27;1092;-64
2021/05/05 14:16:21;;;;;;;;;;;;;;;20.17;60.02;100864.06;5130856;27;1938;-65
2021/05/05 14:19:06;;;;;;;;;;;;;;;20.16;59.96;100861.50;5130558;27;1497;-66
2021/05/05 14:21:51;;;;;;;;;;;;;;;20.16;60.61;100865.00;5141137;27;1469;-67
2021/05/05 14:24:36;;;;;;;;;;;;;;;20.17;60.60;100858.78;5139167;27;1460;-64
2021/05/05 14:27:21;;;;;;;;;;;;;;;20.16;60.60;100851.78;5129677;27;656;-65
2021/05/05 14:30:07;;;;;;;;;;;;;;;20.17;60.69;100858.78;5130106;27;1288;-64
2021/05/05 14:32:52;;;;;;;;;;;;;;;20.16;60.62;100864.16;5130257;27;1081;-67
2021/05/05 14:35:37;;;;;;;;;;;;;;;20.16;60.84;100858.88;5129818;27;1902;-66
2021/05/05 14:38:23;;;;;;;;;;;;;;;20.17;61.04;100865.88;5149460;27;1563;-64
2021/05/05 14:41:11;;;;;;;;;;;;;;;20.21;61.13;100859.47;5134852;27;1298;-68
2021/05/05 14:49:58;;;;;;;;;;;;;;;20.21;61.48;100850.66;5130289;27;1325;-66
2021/05/05 14:52:44;;;;;;;;;;;;;;;20.22;61.73;100849.69;5114079;27;1059;-66
2021/05/05 14:55:29;;;;;;;;;;;;;;;20.22;62.08;100861.13;5132789;27;1945;-66